sensor_id;sensor_type;location;lat;lon;timestamp;P1;durP1;ratioP1;P2;durP2;ratioP2
29352;SDS011;16344;50.364;8.944;2022-11-20T00:01:12;14.05;;;6.80;;
29352;SDS011;16344;50.364;8.944;2022-11-20T00:03:39;14.95;;;7.10;;
29352;SDS011;16344;50.364;8.944;2022-11-20T00:06:06;13.32;;;6.47;;
29352;SDS011;16344;50.364;8.944;2022-11-20T00:08:34;12.70;;;7.25;;
29352;SDS011;16344;50.364;8.944;2022-11-20T00:11:03;12.80;;;6.82;;
29352;SDS011;16344;50.364;8.944;2022-11-20T00:13:33;12.45;;;7.30;;
29352;SDS011;16344;50.364;8.944;2022-11-20T00:16:00;12.40;;;7.43;;
29352;SDS011;16344;50.364;8.944;2022-11-20T00:18:27;13.45;;;6.93;;
29352;SDS011;16344;50.364;8.944;2022-11-20T00:20:53;12.35;;;6.95;;
29352;SDS011;16344;50.364;8.944;2022-11-20T00:23:18;12.02;;;7.43;;
29352;SDS011;16344;50.364;8.944;2022-11-20T00:25:44;13.68;;;7.10;;
29352;SDS011;16344;50.364;8.944;2022-11-20T00:28:10;11.43;;;6.60;;
29352;SDS011;16344;50.364;8.944;2022-11-20T00:30:35;12.88;;;7.05;;
29352;SDS011;16344;50.364;8.944;2022-11-20T00:33:01;12.38;;;6.93;;
29352;SDS011;16344;50.364;8.944;2022-11-20T00:35:26;12.18;;;7.03;;
29352;SDS011;16344;50.364;8.944;2022-11-20T00:37:52;15.13;;;7.25;;
29352;SDS011;16344;50.364;8.944;2022-11-20T00:40:18;11.48;;;6.43;;
29352;SDS011;16344;50.364;8.944;2022-11-20T00:42:43;11.75;;;6.38;;
29352;SDS011;16344;50.364;8.944;2022-11-20T00:45:09;11.52;;;6.53;;
29352;SDS011;16344;50.364;8.944;2022-11-20T00:47:34;12.00;;;6.57;;
29352;SDS011;16344;50.364;8.944;2022-11-20T00:50:00;13.45;;;7.50;;
29352;SDS011;16344;50.364;8.944;2022-11-20T00:52:25;12.98;;;7.15;;
29352;SDS011;16344;50.364;8.944;2022-11-20T00:54:51;11.73;;;6.38;;
29352;SDS011;16344;50.364;8.944;2022-11-20T00:57:16;10.02;;;6.15;;
29352;SDS011;16344;50.364;8.944;2022-11-20T00:59:42;11.05;;;5.80;;
29352;SDS011;16344;50.364;8.944;2022-11-20T01:02:07;10.73;;;6.53;;
29352;SDS011;16344;50.364;8.944;2022-11-20T01:04:33;18.35;;;6.07;;
29352;SDS011;16344;50.364;8.944;2022-11-20T01:06:58;12.25;;;6.72;;
29352;SDS011;16344;50.364;8.944;2022-11-20T01:09:24;11.20;;;6.18;;
29352;SDS011;16344;50.364;8.944;2022-11-20T01:11:49;15.73;;;6.30;;
29352;SDS011;16344;50.364;8.944;2022-11-20T01:14:16;13.43;;;6.80;;
29352;SDS011;16344;50.364;8.944;2022-11-20T01:16:47;11.63;;;6.32;;
29352;SDS011;16344;50.364;8.944;2022-11-20T01:19:19;11.23;;;6.25;;
29352;SDS011;16344;50.364;8.944;2022-11-20T01:21:47;12.35;;;6.50;;
29352;SDS011;16344;50.364;8.944;2022-11-20T01:24:15;11.43;;;6.35;;
29352;SDS011;16344;50.364;8.944;2022-11-20T01:26:43;10.75;;;6.20;;
29352;SDS011;16344;50.364;8.944;2022-11-20T01:29:12;12.63;;;6.20;;
29352;SDS011;16344;50.364;8.944;2022-11-20T01:31:39;12.55;;;7.53;;
29352;SDS011;16344;50.364;8.944;2022-11-20T01:34:06;10.13;;;5.97;;
29352;SDS011;16344;50.364;8.944;2022-11-20T01:36:35;14.18;;;6.38;;
29352;SDS011;16344;50.364;8.944;2022-11-20T01:39:06;13.05;;;6.55;;
29352;SDS011;16344;50.364;8.944;2022-11-20T01:41:35;11.93;;;6.13;;
29352;SDS011;16344;50.364;8.944;2022-11-20T01:44:22;10.80;;;5.78;;
29352;SDS011;16344;50.364;8.944;2022-11-20T01:47:07;11.02;;;6.78;;
29352;SDS011;16344;50.364;8.944;2022-11-20T01:49:53;12.57;;;6.93;;
29352;SDS011;16344;50.364;8.944;2022-11-20T01:52:36;10.98;;;6.03;;
29352;SDS011;16344;50.364;8.944;2022-11-20T01:55:09;11.27;;;5.65;;
29352;SDS011;16344;50.364;8.944;2022-11-20T01:57:56;8.55;;;5.43;;
29352;SDS011;16344;50.364;8.944;2022-11-20T02:00:23;10.63;;;6.50;;
29352;SDS011;16344;50.364;8.944;2022-11-20T02:02:53;11.00;;;6.53;;
29352;SDS011;16344;50.364;8.944;2022-11-20T02:05:34;10.80;;;6.18;;
29352;SDS011;16344;50.364;8.944;2022-11-20T02:08:07;12.65;;;7.07;;
29352;SDS011;16344;50.364;8.944;2022-11-20T02:10:33;12.05;;;6.88;;
29352;SDS011;16344;50.364;8.944;2022-11-20T02:12:59;9.77;;;5.85;;
29352;SDS011;16344;50.364;8.944;2022-11-20T02:15:44;14.85;;;7.10;;
29352;SDS011;16344;50.364;8.944;2022-11-20T02:18:10;9.27;;;5.88;;
29352;SDS011;16344;50.364;8.944;2022-11-20T02:20:39;10.40;;;6.78;;
29352;SDS011;16344;50.364;8.944;2022-11-20T02:23:12;12.27;;;6.35;;
29352;SDS011;16344;50.364;8.944;2022-11-20T02:26:01;10.30;;;6.18;;
29352;SDS011;16344;50.364;8.944;2022-11-20T02:28:30;8.65;;;5.82;;
29352;SDS011;16344;50.364;8.944;2022-11-20T02:30:56;11.40;;;6.70;;
29352;SDS011;16344;50.364;8.944;2022-11-20T02:33:22;10.23;;;5.90;;
29352;SDS011;16344;50.364;8.944;2022-11-20T02:35:47;8.38;;;5.65;;
29352;SDS011;16344;50.364;8.944;2022-11-20T02:38:13;12.13;;;6.35;;
29352;SDS011;16344;50.364;8.944;2022-11-20T02:40:39;11.65;;;6.30;;
29352;SDS011;16344;50.364;8.944;2022-11-20T02:43:05;11.20;;;5.97;;
29352;SDS011;16344;50.364;8.944;2022-11-20T02:45:31;10.40;;;6.18;;
29352;SDS011;16344;50.364;8.944;2022-11-20T02:47:56;7.18;;;5.20;;
29352;SDS011;16344;50.364;8.944;2022-11-20T02:50:22;10.75;;;5.97;;
29352;SDS011;16344;50.364;8.944;2022-11-20T02:52:47;13.73;;;6.78;;
29352;SDS011;16344;50.364;8.944;2022-11-20T02:55:13;10.48;;;6.13;;
29352;SDS011;16344;50.364;8.944;2022-11-20T02:57:39;9.13;;;5.50;;
29352;SDS011;16344;50.364;8.944;2022-11-20T03:00:04;10.65;;;6.00;;
29352;SDS011;16344;50.364;8.944;2022-11-20T03:02:31;9.05;;;6.40;;
29352;SDS011;16344;50.364;8.944;2022-11-20T03:04:57;10.20;;;5.82;;
29352;SDS011;16344;50.364;8.944;2022-11-20T03:07:23;10.23;;;6.00;;
29352;SDS011;16344;50.364;8.944;2022-11-20T03:09:48;10.60;;;6.32;;
29352;SDS011;16344;50.364;8.944;2022-11-20T03:12:14;9.10;;;5.68;;
29352;SDS011;16344;50.364;8.944;2022-11-20T03:14:39;10.38;;;6.47;;
29352;SDS011;16344;50.364;8.944;2022-11-20T03:17:05;7.13;;;5.40;;
29352;SDS011;16344;50.364;8.944;2022-11-20T03:19:31;10.85;;;5.63;;
29352;SDS011;16344;50.364;8.944;2022-11-20T03:21:56;9.43;;;5.75;;
29352;SDS011;16344;50.364;8.944;2022-11-20T03:24:22;8.52;;;5.35;;
29352;SDS011;16344;50.364;8.944;2022-11-20T03:26:47;14.82;;;7.00;;
29352;SDS011;16344;50.364;8.944;2022-11-20T03:29:13;8.57;;;5.78;;
29352;SDS011;16344;50.364;8.944;2022-11-20T03:31:39;10.13;;;6.00;;
29352;SDS011;16344;50.364;8.944;2022-11-20T03:34:05;8.35;;;5.50;;
29352;SDS011;16344;50.364;8.944;2022-11-20T03:36:32;10.57;;;5.55;;
29352;SDS011;16344;50.364;8.944;2022-11-20T03:38:58;9.70;;;6.28;;
29352;SDS011;16344;50.364;8.944;2022-11-20T03:41:27;7.55;;;5.53;;
29352;SDS011;16344;50.364;8.944;2022-11-20T03:43:55;9.77;;;5.88;;
29352;SDS011;16344;50.364;8.944;2022-11-20T03:46:26;8.07;;;5.72;;
29352;SDS011;16344;50.364;8.944;2022-11-20T03:48:52;8.35;;;5.50;;
29352;SDS011;16344;50.364;8.944;2022-11-20T03:51:19;10.02;;;5.50;;
29352;SDS011;16344;50.364;8.944;2022-11-20T03:53:47;11.23;;;5.65;;
29352;SDS011;16344;50.364;8.944;2022-11-20T03:56:14;9.25;;;5.88;;
29352;SDS011;16344;50.364;8.944;2022-11-20T03:58:41;8.18;;;5.50;;
29352;SDS011;16344;50.364;8.944;2022-11-20T04:01:11;10.27;;;6.03;;
29352;SDS011;16344;50.364;8.944;2022-11-20T04:03:42;9.57;;;5.65;;
29352;SDS011;16344;50.364;8.944;2022-11-20T04:06:10;6.93;;;4.88;;
29352;SDS011;16344;50.364;8.944;2022-11-20T04:08:38;10.35;;;5.97;;
29352;SDS011;16344;50.364;8.944;2022-11-20T04:11:11;7.15;;;5.15;;
29352;SDS011;16344;50.364;8.944;2022-11-20T04:13:37;8.10;;;5.57;;
29352;SDS011;16344;50.364;8.944;2022-11-20T04:16:03;8.00;;;5.28;;
29352;SDS011;16344;50.364;8.944;2022-11-20T04:18:30;7.93;;;5.50;;
29352;SDS011;16344;50.364;8.944;2022-11-20T04:20:56;7.20;;;5.40;;
29352;SDS011;16344;50.364;8.944;2022-11-20T04:23:22;11.25;;;5.75;;
29352;SDS011;16344;50.364;8.944;2022-11-20T04:25:48;8.80;;;5.72;;
29352;SDS011;16344;50.364;8.944;2022-11-20T04:28:13;8.73;;;5.38;;
29352;SDS011;16344;50.364;8.944;2022-11-20T04:30:39;9.10;;;5.03;;
29352;SDS011;16344;50.364;8.944;2022-11-20T04:33:04;9.30;;;6.03;;
29352;SDS011;16344;50.364;8.944;2022-11-20T04:35:30;6.80;;;4.90;;
29352;SDS011;16344;50.364;8.944;2022-11-20T04:37:58;8.48;;;5.50;;
29352;SDS011;16344;50.364;8.944;2022-11-20T04:40:23;6.53;;;4.88;;
29352;SDS011;16344;50.364;8.944;2022-11-20T04:42:49;5.97;;;4.28;;
29352;SDS011;16344;50.364;8.944;2022-11-20T04:45:14;7.35;;;4.50;;
29352;SDS011;16344;50.364;8.944;2022-11-20T04:47:40;7.78;;;5.28;;
29352;SDS011;16344;50.364;8.944;2022-11-20T04:50:05;9.38;;;5.45;;
29352;SDS011;16344;50.364;8.944;2022-11-20T04:52:31;8.70;;;5.60;;
29352;SDS011;16344;50.364;8.944;2022-11-20T04:54:57;7.43;;;5.10;;
29352;SDS011;16344;50.364;8.944;2022-11-20T04:57:22;8.05;;;5.65;;
29352;SDS011;16344;50.364;8.944;2022-11-20T04:59:48;7.53;;;5.05;;
29352;SDS011;16344;50.364;8.944;2022-11-20T05:02:13;8.13;;;4.85;;
29352;SDS011;16344;50.364;8.944;2022-11-20T05:04:39;8.40;;;5.55;;
29352;SDS011;16344;50.364;8.944;2022-11-20T05:07:04;8.40;;;5.50;;
29352;SDS011;16344;50.364;8.944;2022-11-20T05:09:30;9.02;;;5.45;;
29352;SDS011;16344;50.364;8.944;2022-11-20T05:11:56;7.68;;;5.43;;
29352;SDS011;16344;50.364;8.944;2022-11-20T05:14:21;8.00;;;5.38;;
29352;SDS011;16344;50.364;8.944;2022-11-20T05:16:47;6.32;;;4.78;;
29352;SDS011;16344;50.364;8.944;2022-11-20T05:19:12;7.60;;;4.95;;
29352;SDS011;16344;50.364;8.944;2022-11-20T05:21:38;8.18;;;5.18;;
29352;SDS011;16344;50.364;8.944;2022-11-20T05:24:03;9.00;;;5.68;;
29352;SDS011;16344;50.364;8.944;2022-11-20T05:26:29;5.97;;;4.95;;
29352;SDS011;16344;50.364;8.944;2022-11-20T05:28:55;6.70;;;4.63;;
29352;SDS011;16344;50.364;8.944;2022-11-20T05:31:21;10.02;;;5.57;;
29352;SDS011;16344;50.364;8.944;2022-11-20T05:33:49;7.15;;;4.85;;
29352;SDS011;16344;50.364;8.944;2022-11-20T05:36:15;8.00;;;5.25;;
29352;SDS011;16344;50.364;8.944;2022-11-20T05:38:41;8.18;;;5.47;;
29352;SDS011;16344;50.364;8.944;2022-11-20T05:41:09;7.78;;;5.20;;
29352;SDS011;16344;50.364;8.944;2022-11-20T05:43:35;8.98;;;5.32;;
29352;SDS011;16344;50.364;8.944;2022-11-20T05:46:03;7.18;;;5.47;;
29352;SDS011;16344;50.364;8.944;2022-11-20T05:48:30;9.15;;;4.85;;
29352;SDS011;16344;50.364;8.944;2022-11-20T05:50:57;8.35;;;5.43;;
29352;SDS011;16344;50.364;8.944;2022-11-20T05:53:24;7.15;;;5.10;;
29352;SDS011;16344;50.364;8.944;2022-11-20T05:55:59;9.02;;;4.85;;
29352;SDS011;16344;50.364;8.944;2022-11-20T05:58:36;5.85;;;4.88;;
29352;SDS011;16344;50.364;8.944;2022-11-20T06:01:06;7.60;;;5.15;;
29352;SDS011;16344;50.364;8.944;2022-11-20T06:03:35;7.53;;;5.72;;
29352;SDS011;16344;50.364;8.944;2022-11-20T06:06:01;8.13;;;5.40;;
29352;SDS011;16344;50.364;8.944;2022-11-20T06:08:28;6.10;;;4.28;;
29352;SDS011;16344;50.364;8.944;2022-11-20T06:10:54;7.25;;;5.13;;
29352;SDS011;16344;50.364;8.944;2022-11-20T06:13:20;8.25;;;5.20;;
29352;SDS011;16344;50.364;8.944;2022-11-20T06:15:52;5.82;;;4.80;;
29352;SDS011;16344;50.364;8.944;2022-11-20T06:18:19;6.57;;;4.72;;
29352;SDS011;16344;50.364;8.944;2022-11-20T06:20:45;7.30;;;5.38;;
29352;SDS011;16344;50.364;8.944;2022-11-20T06:23:11;6.82;;;5.13;;
29352;SDS011;16344;50.364;8.944;2022-11-20T06:25:40;6.40;;;4.57;;
29352;SDS011;16344;50.364;8.944;2022-11-20T06:28:06;7.72;;;4.95;;
29352;SDS011;16344;50.364;8.944;2022-11-20T06:30:32;6.80;;;4.88;;
29352;SDS011;16344;50.364;8.944;2022-11-20T06:32:58;6.60;;;5.03;;
29352;SDS011;16344;50.364;8.944;2022-11-20T06:35:24;8.27;;;5.30;;
29352;SDS011;16344;50.364;8.944;2022-11-20T06:37:49;6.00;;;5.00;;
29352;SDS011;16344;50.364;8.944;2022-11-20T06:40:15;5.88;;;4.78;;
29352;SDS011;16344;50.364;8.944;2022-11-20T06:42:40;8.38;;;5.75;;
29352;SDS011;16344;50.364;8.944;2022-11-20T06:45:06;8.20;;;5.18;;
29352;SDS011;16344;50.364;8.944;2022-11-20T06:47:32;7.13;;;4.93;;
29352;SDS011;16344;50.364;8.944;2022-11-20T06:49:58;6.70;;;5.00;;
29352;SDS011;16344;50.364;8.944;2022-11-20T06:52:24;6.80;;;4.85;;
29352;SDS011;16344;50.364;8.944;2022-11-20T06:54:49;8.23;;;4.82;;
29352;SDS011;16344;50.364;8.944;2022-11-20T06:57:15;6.60;;;5.20;;
29352;SDS011;16344;50.364;8.944;2022-11-20T06:59:40;6.60;;;4.55;;
29352;SDS011;16344;50.364;8.944;2022-11-20T07:02:09;7.30;;;4.80;;
29352;SDS011;16344;50.364;8.944;2022-11-20T07:04:35;5.65;;;4.40;;
29352;SDS011;16344;50.364;8.944;2022-11-20T07:07:01;7.07;;;5.07;;
29352;SDS011;16344;50.364;8.944;2022-11-20T07:09:26;6.82;;;4.75;;
29352;SDS011;16344;50.364;8.944;2022-11-20T07:11:52;6.85;;;4.85;;
29352;SDS011;16344;50.364;8.944;2022-11-20T07:14:17;6.32;;;4.80;;
29352;SDS011;16344;50.364;8.944;2022-11-20T07:16:43;6.72;;;4.65;;
29352;SDS011;16344;50.364;8.944;2022-11-20T07:19:08;5.45;;;3.83;;
29352;SDS011;16344;50.364;8.944;2022-11-20T07:21:34;6.35;;;4.85;;
29352;SDS011;16344;50.364;8.944;2022-11-20T07:23:59;7.63;;;4.82;;
29352;SDS011;16344;50.364;8.944;2022-11-20T07:26:25;6.85;;;4.57;;
29352;SDS011;16344;50.364;8.944;2022-11-20T07:28:50;6.28;;;4.53;;
29352;SDS011;16344;50.364;8.944;2022-11-20T07:31:16;6.13;;;4.68;;
29352;SDS011;16344;50.364;8.944;2022-11-20T07:33:41;6.50;;;4.82;;
29352;SDS011;16344;50.364;8.944;2022-11-20T07:36:07;6.57;;;5.00;;
29352;SDS011;16344;50.364;8.944;2022-11-20T07:38:32;7.72;;;5.70;;
29352;SDS011;16344;50.364;8.944;2022-11-20T07:40:58;6.80;;;4.40;;
29352;SDS011;16344;50.364;8.944;2022-11-20T07:43:26;7.93;;;5.15;;
29352;SDS011;16344;50.364;8.944;2022-11-20T07:45:54;6.72;;;4.50;;
29352;SDS011;16344;50.364;8.944;2022-11-20T07:48:21;10.85;;;4.65;;
29352;SDS011;16344;50.364;8.944;2022-11-20T07:50:46;6.82;;;4.97;;
29352;SDS011;16344;50.364;8.944;2022-11-20T07:53:12;9.00;;;4.97;;
29352;SDS011;16344;50.364;8.944;2022-11-20T07:55:38;7.47;;;4.95;;
29352;SDS011;16344;50.364;8.944;2022-11-20T07:58:04;14.35;;;5.05;;
29352;SDS011;16344;50.364;8.944;2022-11-20T08:00:30;5.40;;;4.15;;
29352;SDS011;16344;50.364;8.944;2022-11-20T08:02:55;12.38;;;4.88;;
29352;SDS011;16344;50.364;8.944;2022-11-20T08:05:21;11.77;;;5.03;;
29352;SDS011;16344;50.364;8.944;2022-11-20T08:07:47;11.48;;;5.10;;
29352;SDS011;16344;50.364;8.944;2022-11-20T08:10:13;12.50;;;5.95;;
29352;SDS011;16344;50.364;8.944;2022-11-20T08:12:47;9.57;;;5.70;;
29352;SDS011;16344;50.364;8.944;2022-11-20T08:15:35;11.95;;;5.25;;
29352;SDS011;16344;50.364;8.944;2022-11-20T08:18:05;14.07;;;5.18;;
29352;SDS011;16344;50.364;8.944;2022-11-20T08:20:32;10.55;;;6.85;;
29352;SDS011;16344;50.364;8.944;2022-11-20T08:22:59;10.23;;;6.18;;
29352;SDS011;16344;50.364;8.944;2022-11-20T08:27:58;11.52;;;6.65;;
29352;SDS011;16344;50.364;8.944;2022-11-20T08:30:25;10.65;;;6.55;;
29352;SDS011;16344;50.364;8.944;2022-11-20T08:32:52;8.80;;;6.45;;
29352;SDS011;16344;50.364;8.944;2022-11-20T08:35:18;8.77;;;6.47;;
29352;SDS011;16344;50.364;8.944;2022-11-20T08:37:48;9.15;;;5.88;;
29352;SDS011;16344;50.364;8.944;2022-11-20T08:40:13;9.25;;;6.03;;
29352;SDS011;16344;50.364;8.944;2022-11-20T08:42:49;9.77;;;6.05;;
29352;SDS011;16344;50.364;8.944;2022-11-20T08:45:16;11.98;;;6.78;;
29352;SDS011;16344;50.364;8.944;2022-11-20T08:47:43;10.90;;;6.43;;
29352;SDS011;16344;50.364;8.944;2022-11-20T08:50:09;10.07;;;6.95;;
29352;SDS011;16344;50.364;8.944;2022-11-20T08:52:36;22.42;;;6.60;;
29352;SDS011;16344;50.364;8.944;2022-11-20T08:55:02;10.00;;;6.20;;
29352;SDS011;16344;50.364;8.944;2022-11-20T08:57:30;9.60;;;6.72;;
29352;SDS011;16344;50.364;8.944;2022-11-20T08:59:59;11.00;;;7.07;;
29352;SDS011;16344;50.364;8.944;2022-11-20T09:02:25;20.27;;;7.97;;
29352;SDS011;16344;50.364;8.944;2022-11-20T09:04:51;8.15;;;6.18;;
29352;SDS011;16344;50.364;8.944;2022-11-20T09:07:18;9.77;;;6.85;;
29352;SDS011;16344;50.364;8.944;2022-11-20T09:09:43;13.85;;;6.40;;
29352;SDS011;16344;50.364;8.944;2022-11-20T09:12:09;12.18;;;7.18;;
29352;SDS011;16344;50.364;8.944;2022-11-20T09:14:35;13.40;;;6.18;;
29352;SDS011;16344;50.364;8.944;2022-11-20T09:17:00;9.02;;;6.95;;
29352;SDS011;16344;50.364;8.944;2022-11-20T09:19:26;14.57;;;7.22;;
29352;SDS011;16344;50.364;8.944;2022-11-20T09:21:51;14.20;;;7.25;;
29352;SDS011;16344;50.364;8.944;2022-11-20T09:24:17;9.80;;;6.68;;
29352;SDS011;16344;50.364;8.944;2022-11-20T09:26:43;13.48;;;6.45;;
29352;SDS011;16344;50.364;8.944;2022-11-20T09:29:09;9.13;;;7.28;;
29352;SDS011;16344;50.364;8.944;2022-11-20T09:31:34;11.05;;;7.43;;
29352;SDS011;16344;50.364;8.944;2022-11-20T09:34:00;12.82;;;7.90;;
29352;SDS011;16344;50.364;8.944;2022-11-20T09:36:25;13.60;;;6.93;;
29352;SDS011;16344;50.364;8.944;2022-11-20T09:38:51;12.00;;;7.15;;
29352;SDS011;16344;50.364;8.944;2022-11-20T09:41:29;14.18;;;8.60;;
29352;SDS011;16344;50.364;8.944;2022-11-20T09:46:50;20.92;;;10.20;;
29352;SDS011;16344;50.364;8.944;2022-11-20T09:54:44;14.00;;;9.27;;
29352;SDS011;16344;50.364;8.944;2022-11-20T09:57:10;16.58;;;8.45;;
29352;SDS011;16344;50.364;8.944;2022-11-20T09:59:46;14.23;;;9.13;;
29352;SDS011;16344;50.364;8.944;2022-11-20T10:05:06;16.95;;;8.05;;
29352;SDS011;16344;50.364;8.944;2022-11-20T10:10:45;12.82;;;8.18;;
29352;SDS011;16344;50.364;8.944;2022-11-20T10:13:27;14.80;;;8.18;;
29352;SDS011;16344;50.364;8.944;2022-11-20T10:16:20;10.52;;;7.63;;
29352;SDS011;16344;50.364;8.944;2022-11-20T10:18:57;26.27;;;8.93;;
29352;SDS011;16344;50.364;8.944;2022-11-20T10:24:42;11.48;;;7.90;;
29352;SDS011;16344;50.364;8.944;2022-11-20T10:32:40;13.43;;;8.57;;
29352;SDS011;16344;50.364;8.944;2022-11-20T10:37:58;14.32;;;8.23;;
29352;SDS011;16344;50.364;8.944;2022-11-20T10:43:01;16.65;;;8.32;;
29352;SDS011;16344;50.364;8.944;2022-11-20T10:45:36;12.82;;;9.10;;
29352;SDS011;16344;50.364;8.944;2022-11-20T10:48:24;19.23;;;7.97;;
29352;SDS011;16344;50.364;8.944;2022-11-20T10:53:42;12.63;;;8.63;;
29352;SDS011;16344;50.364;8.944;2022-11-20T11:01:41;17.45;;;10.00;;
29352;SDS011;16344;50.364;8.944;2022-11-20T11:04:43;19.27;;;9.10;;
29352;SDS011;16344;50.364;8.944;2022-11-20T11:07:20;19.05;;;8.73;;
29352;SDS011;16344;50.364;8.944;2022-11-20T11:09:55;27.10;;;8.80;;
29352;SDS011;16344;50.364;8.944;2022-11-20T11:12:22;14.25;;;8.60;;
29352;SDS011;16344;50.364;8.944;2022-11-20T11:14:50;24.00;;;9.13;;
29352;SDS011;16344;50.364;8.944;2022-11-20T11:22:43;26.70;;;9.90;;
29352;SDS011;16344;50.364;8.944;2022-11-20T11:25:20;27.25;;;9.57;;
29352;SDS011;16344;50.364;8.944;2022-11-20T11:27:46;23.45;;;9.35;;
29352;SDS011;16344;50.364;8.944;2022-11-20T11:30:16;23.85;;;9.10;;
29352;SDS011;16344;50.364;8.944;2022-11-20T11:32:43;23.58;;;8.88;;
29352;SDS011;16344;50.364;8.944;2022-11-20T11:35:26;38.58;;;10.05;;
29352;SDS011;16344;50.364;8.944;2022-11-20T11:37:54;34.03;;;10.02;;
29352;SDS011;16344;50.364;8.944;2022-11-20T11:40:27;25.17;;;9.93;;
29352;SDS011;16344;50.364;8.944;2022-11-20T11:42:59;18.20;;;9.32;;
29352;SDS011;16344;50.364;8.944;2022-11-20T11:45:29;19.25;;;9.70;;
29352;SDS011;16344;50.364;8.944;2022-11-20T11:47:56;31.40;;;9.52;;
29352;SDS011;16344;50.364;8.944;2022-11-20T11:50:25;19.95;;;10.10;;
29352;SDS011;16344;50.364;8.944;2022-11-20T11:55:37;31.75;;;9.75;;
29352;SDS011;16344;50.364;8.944;2022-11-20T12:06:32;31.38;;;10.40;;
29352;SDS011;16344;50.364;8.944;2022-11-20T12:11:46;17.65;;;9.55;;
29352;SDS011;16344;50.364;8.944;2022-11-20T12:14:27;15.35;;;8.38;;
29352;SDS011;16344;50.364;8.944;2022-11-20T12:17:01;19.95;;;8.95;;
29352;SDS011;16344;50.364;8.944;2022-11-20T12:19:29;19.30;;;10.43;;
29352;SDS011;16344;50.364;8.944;2022-11-20T12:22:02;16.38;;;9.85;;
29352;SDS011;16344;50.364;8.944;2022-11-20T12:30:14;18.00;;;9.23;;
29352;SDS011;16344;50.364;8.944;2022-11-20T12:41:02;26.35;;;10.85;;
29352;SDS011;16344;50.364;8.944;2022-11-20T12:43:57;24.85;;;10.82;;
29352;SDS011;16344;50.364;8.944;2022-11-20T12:52:20;41.10;;;11.95;;
29352;SDS011;16344;50.364;8.944;2022-11-20T13:00:15;30.63;;;10.23;;
29352;SDS011;16344;50.364;8.944;2022-11-20T13:07:44;23.40;;;12.98;;
29352;SDS011;16344;50.364;8.944;2022-11-20T13:10:20;27.45;;;14.07;;
29352;SDS011;16344;50.364;8.944;2022-11-20T13:12:51;25.95;;;13.70;;
29352;SDS011;16344;50.364;8.944;2022-11-20T13:15:37;22.20;;;13.82;;
29352;SDS011;16344;50.364;8.944;2022-11-20T13:18:26;22.20;;;13.95;;
29352;SDS011;16344;50.364;8.944;2022-11-20T13:20:53;20.48;;;12.32;;
29352;SDS011;16344;50.364;8.944;2022-11-20T13:23:23;17.67;;;10.73;;
29352;SDS011;16344;50.364;8.944;2022-11-20T13:29:07;21.75;;;10.23;;
29352;SDS011;16344;50.364;8.944;2022-11-20T13:31:36;17.40;;;10.57;;
29352;SDS011;16344;50.364;8.944;2022-11-20T13:34:10;13.60;;;9.32;;
29352;SDS011;16344;50.364;8.944;2022-11-20T13:36:51;16.30;;;9.55;;
29352;SDS011;16344;50.364;8.944;2022-11-20T13:39:34;19.08;;;9.27;;
29352;SDS011;16344;50.364;8.944;2022-11-20T13:44:46;16.00;;;8.40;;
29352;SDS011;16344;50.364;8.944;2022-11-20T13:47:19;13.75;;;8.15;;
29352;SDS011;16344;50.364;8.944;2022-11-20T13:49:50;11.98;;;7.72;;
29352;SDS011;16344;50.364;8.944;2022-11-20T13:52:38;15.70;;;7.95;;
29352;SDS011;16344;50.364;8.944;2022-11-20T13:55:37;14.75;;;8.13;;
29352;SDS011;16344;50.364;8.944;2022-11-20T14:01:07;12.32;;;8.60;;
29352;SDS011;16344;50.364;8.944;2022-11-20T14:03:35;15.68;;;8.57;;
29352;SDS011;16344;50.364;8.944;2022-11-20T14:06:02;10.55;;;7.43;;
29352;SDS011;16344;50.364;8.944;2022-11-20T14:08:35;12.93;;;8.25;;
29352;SDS011;16344;50.364;8.944;2022-11-20T14:11:13;15.07;;;8.07;;
29352;SDS011;16344;50.364;8.944;2022-11-20T14:16:29;14.38;;;8.13;;
29352;SDS011;16344;50.364;8.944;2022-11-20T14:24:32;11.68;;;7.82;;
29352;SDS011;16344;50.364;8.944;2022-11-20T14:26:58;13.02;;;8.13;;
29352;SDS011;16344;50.364;8.944;2022-11-20T14:29:28;17.63;;;8.77;;
29352;SDS011;16344;50.364;8.944;2022-11-20T14:31:59;18.15;;;8.75;;
29352;SDS011;16344;50.364;8.944;2022-11-20T14:34:27;12.32;;;8.05;;
29352;SDS011;16344;50.364;8.944;2022-11-20T14:36:58;17.83;;;8.60;;
29352;SDS011;16344;50.364;8.944;2022-11-20T14:39:27;13.73;;;8.07;;
29352;SDS011;16344;50.364;8.944;2022-11-20T14:42:01;15.35;;;8.15;;
29352;SDS011;16344;50.364;8.944;2022-11-20T14:44:32;17.83;;;8.32;;
29352;SDS011;16344;50.364;8.944;2022-11-20T14:47:00;16.35;;;8.55;;
29352;SDS011;16344;50.364;8.944;2022-11-20T14:49:28;11.48;;;8.55;;
29352;SDS011;16344;50.364;8.944;2022-11-20T14:52:00;16.67;;;9.15;;
29352;SDS011;16344;50.364;8.944;2022-11-20T14:54:25;12.38;;;9.05;;
29352;SDS011;16344;50.364;8.944;2022-11-20T14:59:33;12.32;;;9.13;;
29352;SDS011;16344;50.364;8.944;2022-11-20T15:02:01;11.55;;;8.65;;
29352;SDS011;16344;50.364;8.944;2022-11-20T15:04:27;12.52;;;8.93;;
29352;SDS011;16344;50.364;8.944;2022-11-20T15:06:54;18.67;;;9.23;;
29352;SDS011;16344;50.364;8.944;2022-11-20T15:09:21;12.27;;;9.32;;
29352;SDS011;16344;50.364;8.944;2022-11-20T15:12:02;14.13;;;10.40;;
29352;SDS011;16344;50.364;8.944;2022-11-20T15:14:29;13.40;;;9.18;;
29352;SDS011;16344;50.364;8.944;2022-11-20T15:16:56;13.98;;;8.85;;
29352;SDS011;16344;50.364;8.944;2022-11-20T15:19:22;14.20;;;9.30;;
29352;SDS011;16344;50.364;8.944;2022-11-20T15:21:49;13.82;;;8.60;;
29352;SDS011;16344;50.364;8.944;2022-11-20T15:24:15;11.48;;;9.45;;
29352;SDS011;16344;50.364;8.944;2022-11-20T15:26:41;14.75;;;9.38;;
29352;SDS011;16344;50.364;8.944;2022-11-20T15:29:11;12.68;;;9.18;;
29352;SDS011;16344;50.364;8.944;2022-11-20T15:31:38;12.77;;;9.73;;
29352;SDS011;16344;50.364;8.944;2022-11-20T15:34:11;12.05;;;8.65;;
29352;SDS011;16344;50.364;8.944;2022-11-20T15:36:38;12.23;;;8.60;;
29352;SDS011;16344;50.364;8.944;2022-11-20T15:39:04;17.52;;;10.23;;
29352;SDS011;16344;50.364;8.944;2022-11-20T15:41:32;16.33;;;9.48;;
29352;SDS011;16344;50.364;8.944;2022-11-20T15:43:58;15.18;;;9.82;;
29352;SDS011;16344;50.364;8.944;2022-11-20T15:46:25;13.60;;;10.15;;
29352;SDS011;16344;50.364;8.944;2022-11-20T15:48:56;12.00;;;9.13;;
29352;SDS011;16344;50.364;8.944;2022-11-20T15:54:22;15.98;;;9.93;;
29352;SDS011;16344;50.364;8.944;2022-11-20T15:56:48;12.55;;;8.80;;
29352;SDS011;16344;50.364;8.944;2022-11-20T15:59:14;13.10;;;8.98;;
29352;SDS011;16344;50.364;8.944;2022-11-20T16:01:40;15.32;;;9.57;;
29352;SDS011;16344;50.364;8.944;2022-11-20T16:04:10;18.58;;;10.50;;
29352;SDS011;16344;50.364;8.944;2022-11-20T16:06:37;16.00;;;9.55;;
29352;SDS011;16344;50.364;8.944;2022-11-20T16:09:03;14.25;;;9.13;;
29352;SDS011;16344;50.364;8.944;2022-11-20T16:11:28;18.70;;;10.05;;
29352;SDS011;16344;50.364;8.944;2022-11-20T16:13:54;18.35;;;9.88;;
29352;SDS011;16344;50.364;8.944;2022-11-20T16:16:38;15.13;;;9.75;;
29352;SDS011;16344;50.364;8.944;2022-11-20T16:19:05;22.27;;;10.48;;
29352;SDS011;16344;50.364;8.944;2022-11-20T16:21:34;17.00;;;9.75;;
29352;SDS011;16344;50.364;8.944;2022-11-20T16:24:03;13.90;;;9.32;;
29352;SDS011;16344;50.364;8.944;2022-11-20T16:26:30;13.63;;;9.27;;
29352;SDS011;16344;50.364;8.944;2022-11-20T16:28:58;15.18;;;9.25;;
29352;SDS011;16344;50.364;8.944;2022-11-20T16:31:24;13.18;;;9.43;;
29352;SDS011;16344;50.364;8.944;2022-11-20T16:33:50;12.85;;;9.45;;
29352;SDS011;16344;50.364;8.944;2022-11-20T16:36:17;17.85;;;9.18;;
29352;SDS011;16344;50.364;8.944;2022-11-20T16:38:43;13.18;;;8.95;;